Arkansas City, Arkansas
Current Conditions -  °F | °C
As of 2:53 AM on Friday 28 Nov 2014 (Local Time) from KGLH Reporting Station
Clear Clear  
Wind Chill:   Ceiling: Unl
Heat Index:   Visibility: 9mi
Dew Point: -3°   Wind: 0mph
Humidity: 82%   Direction: NA
Pressure: 30.43"   Gusts: NA
Location:  33.61°N, 91.21°W
Report Text: KGLH 280853Z AUTO 00000KT 9SM CLR 00/M03 A3043 RMK AO2 SLP315 T00001028 55007
Loading
Personal Weather Stations






























Interactive Weather Map New forecast layout! Learn more

10-Day Weather Forecast

Advertisements
Track Severe Weather on mobile